sensor_id;sensor_type;location;lat;lon;timestamp;temperature;humidity
35700;DHT22;21818;51.078;12.108;2024-01-11T00:00:14;9.90;92.00
35700;DHT22;21818;51.078;12.108;2024-01-11T00:02:39;9.90;92.10
35700;DHT22;21818;51.078;12.108;2024-01-11T00:05:05;9.90;92.00
35700;DHT22;21818;51.078;12.108;2024-01-11T00:07:32;10.00;92.10
35700;DHT22;21818;51.078;12.108;2024-01-11T00:09:57;9.90;92.20
35700;DHT22;21818;51.078;12.108;2024-01-11T00:12:23;9.90;92.20
35700;DHT22;21818;51.078;12.108;2024-01-11T00:14:48;9.90;92.10
35700;DHT22;21818;51.078;12.108;2024-01-11T00:17:14;9.90;92.10
35700;DHT22;21818;51.078;12.108;2024-01-11T00:19:41;9.90;92.20
35700;DHT22;21818;51.078;12.108;2024-01-11T00:22:06;9.90;92.30
35700;DHT22;21818;51.078;12.108;2024-01-11T00:24:32;9.90;92.30
35700;DHT22;21818;51.078;12.108;2024-01-11T00:26:57;9.90;92.30
35700;DHT22;21818;51.078;12.108;2024-01-11T00:29:23;9.90;92.20
35700;DHT22;21818;51.078;12.108;2024-01-11T00:31:48;10.00;92.10
35700;DHT22;21818;51.078;12.108;2024-01-11T00:34:14;10.10;92.10
35700;DHT22;21818;51.078;12.108;2024-01-11T00:36:40;10.10;92.20
35700;DHT22;21818;51.078;12.108;2024-01-11T00:39:05;10.10;92.20
35700;DHT22;21818;51.078;12.108;2024-01-11T00:41:31;10.10;92.30
35700;DHT22;21818;51.078;12.108;2024-01-11T00:43:56;10.00;92.30
35700;DHT22;21818;51.078;12.108;2024-01-11T00:46:22;10.00;92.40
35700;DHT22;21818;51.078;12.108;2024-01-11T00:48:47;10.00;92.40
35700;DHT22;21818;51.078;12.108;2024-01-11T00:51:13;10.00;92.40
35700;DHT22;21818;51.078;12.108;2024-01-11T00:53:38;10.00;92.40
35700;DHT22;21818;51.078;12.108;2024-01-11T00:56:04;9.90;92.40
35700;DHT22;21818;51.078;12.108;2024-01-11T00:58:29;9.90;92.40
35700;DHT22;21818;51.078;12.108;2024-01-11T01:00:55;9.90;92.40
35700;DHT22;21818;51.078;12.108;2024-01-11T01:03:21;9.90;92.30
35700;DHT22;21818;51.078;12.108;2024-01-11T01:05:47;10.00;92.30
35700;DHT22;21818;51.078;12.108;2024-01-11T01:08:13;10.00;92.20
35700;DHT22;21818;51.078;12.108;2024-01-11T01:10:38;10.00;92.20
35700;DHT22;21818;51.078;12.108;2024-01-11T01:13:04;10.00;92.10
35700;DHT22;21818;51.078;12.108;2024-01-11T01:15:30;10.00;92.10
35700;DHT22;21818;51.078;12.108;2024-01-11T01:17:55;10.00;92.00
35700;DHT22;21818;51.078;12.108;2024-01-11T01:20:21;10.00;92.10
35700;DHT22;21818;51.078;12.108;2024-01-11T01:22:47;9.90;92.20
35700;DHT22;21818;51.078;12.108;2024-01-11T01:25:13;9.90;92.40
35700;DHT22;21818;51.078;12.108;2024-01-11T01:27:38;9.90;92.50
35700;DHT22;21818;51.078;12.108;2024-01-11T01:30:04;9.90;92.70
35700;DHT22;21818;51.078;12.108;2024-01-11T01:32:30;9.90;92.70
35700;DHT22;21818;51.078;12.108;2024-01-11T01:34:56;9.90;92.80
35700;DHT22;21818;51.078;12.108;2024-01-11T01:37:21;9.80;92.90
35700;DHT22;21818;51.078;12.108;2024-01-11T01:39:47;9.80;93.00
35700;DHT22;21818;51.078;12.108;2024-01-11T01:42:12;9.80;93.10
35700;DHT22;21818;51.078;12.108;2024-01-11T01:44:38;9.80;93.10
35700;DHT22;21818;51.078;12.108;2024-01-11T01:47:06;9.90;93.20
35700;DHT22;21818;51.078;12.108;2024-01-11T01:49:33;9.90;93.30
35700;DHT22;21818;51.078;12.108;2024-01-11T01:51:58;9.90;93.40
35700;DHT22;21818;51.078;12.108;2024-01-11T01:54:24;9.90;93.30
35700;DHT22;21818;51.078;12.108;2024-01-11T01:56:51;9.90;93.40
35700;DHT22;21818;51.078;12.108;2024-01-11T01:59:17;9.90;93.50
35700;DHT22;21818;51.078;12.108;2024-01-11T02:01:44;9.90;93.50
35700;DHT22;21818;51.078;12.108;2024-01-11T02:04:10;9.90;93.50
35700;DHT22;21818;51.078;12.108;2024-01-11T02:06:36;9.90;93.50
35700;DHT22;21818;51.078;12.108;2024-01-11T02:09:03;9.80;93.60
35700;DHT22;21818;51.078;12.108;2024-01-11T02:11:29;9.80;93.60
35700;DHT22;21818;51.078;12.108;2024-01-11T02:13:55;9.90;93.60
35700;DHT22;21818;51.078;12.108;2024-01-11T02:16:21;9.90;93.60
35700;DHT22;21818;51.078;12.108;2024-01-11T02:18:46;9.80;93.60
35700;DHT22;21818;51.078;12.108;2024-01-11T02:21:14;9.80;93.70
35700;DHT22;21818;51.078;12.108;2024-01-11T02:23:51;9.80;93.70
35700;DHT22;21818;51.078;12.108;2024-01-11T02:26:17;9.80;93.80
35700;DHT22;21818;51.078;12.108;2024-01-11T02:28:46;9.80;93.90
35700;DHT22;21818;51.078;12.108;2024-01-11T02:31:13;9.80;93.90
35700;DHT22;21818;51.078;12.108;2024-01-11T02:33:39;9.80;93.90
35700;DHT22;21818;51.078;12.108;2024-01-11T02:36:06;9.80;93.90
35700;DHT22;21818;51.078;12.108;2024-01-11T02:38:33;9.80;93.90
35700;DHT22;21818;51.078;12.108;2024-01-11T02:40:59;9.80;93.90
35700;DHT22;21818;51.078;12.108;2024-01-11T02:43:25;9.80;93.90
35700;DHT22;21818;51.078;12.108;2024-01-11T02:45:54;9.80;93.90
35700;DHT22;21818;51.078;12.108;2024-01-11T02:48:20;9.80;94.20
35700;DHT22;21818;51.078;12.108;2024-01-11T02:50:48;9.80;94.00
35700;DHT22;21818;51.078;12.108;2024-01-11T02:53:13;9.80;94.00
35700;DHT22;21818;51.078;12.108;2024-01-11T02:55:39;9.80;94.10
35700;DHT22;21818;51.078;12.108;2024-01-11T02:58:04;9.80;94.10
35700;DHT22;21818;51.078;12.108;2024-01-11T03:00:30;9.80;94.10
35700;DHT22;21818;51.078;12.108;2024-01-11T03:02:55;9.80;94.10
35700;DHT22;21818;51.078;12.108;2024-01-11T03:05:21;9.80;94.10
35700;DHT22;21818;51.078;12.108;2024-01-11T03:07:46;9.80;94.10
35700;DHT22;21818;51.078;12.108;2024-01-11T03:10:12;9.80;94.20
35700;DHT22;21818;51.078;12.108;2024-01-11T03:12:39;9.80;94.30
35700;DHT22;21818;51.078;12.108;2024-01-11T03:15:05;9.80;94.60
35700;DHT22;21818;51.078;12.108;2024-01-11T03:17:32;9.80;94.30
35700;DHT22;21818;51.078;12.108;2024-01-11T03:19:58;9.80;94.40
35700;DHT22;21818;51.078;12.108;2024-01-11T03:22:25;9.80;94.40
35700;DHT22;21818;51.078;12.108;2024-01-11T03:24:50;9.80;94.40
35700;DHT22;21818;51.078;12.108;2024-01-11T03:27:16;9.80;94.40
35700;DHT22;21818;51.078;12.108;2024-01-11T03:29:41;9.80;94.40
35700;DHT22;21818;51.078;12.108;2024-01-11T03:32:07;9.80;94.40
35700;DHT22;21818;51.078;12.108;2024-01-11T03:34:32;9.80;94.40
35700;DHT22;21818;51.078;12.108;2024-01-11T03:36:58;9.80;94.40
35700;DHT22;21818;51.078;12.108;2024-01-11T03:39:25;9.80;94.40
35700;DHT22;21818;51.078;12.108;2024-01-11T03:41:50;9.80;94.30
35700;DHT22;21818;51.078;12.108;2024-01-11T03:44:16;9.80;94.60
35700;DHT22;21818;51.078;12.108;2024-01-11T03:46:41;9.80;94.40
35700;DHT22;21818;51.078;12.108;2024-01-11T03:49:07;9.80;94.40
35700;DHT22;21818;51.078;12.108;2024-01-11T03:51:34;9.70;94.40
35700;DHT22;21818;51.078;12.108;2024-01-11T03:53:59;9.70;94.40
35700;DHT22;21818;51.078;12.108;2024-01-11T03:56:25;9.70;94.40
35700;DHT22;21818;51.078;12.108;2024-01-11T03:58:51;9.70;94.40
35700;DHT22;21818;51.078;12.108;2024-01-11T04:01:16;9.70;94.20
35700;DHT22;21818;51.078;12.108;2024-01-11T04:03:42;9.80;94.10
35700;DHT22;21818;51.078;12.108;2024-01-11T04:06:07;9.70;94.00
35700;DHT22;21818;51.078;12.108;2024-01-11T04:08:33;9.70;94.00
35700;DHT22;21818;51.078;12.108;2024-01-11T04:11:02;9.70;94.00
35700;DHT22;21818;51.078;12.108;2024-01-11T04:13:28;9.60;93.90
35700;DHT22;21818;51.078;12.108;2024-01-11T04:15:54;9.70;93.90
35700;DHT22;21818;51.078;12.108;2024-01-11T04:18:19;9.70;93.80
35700;DHT22;21818;51.078;12.108;2024-01-11T04:20:45;9.60;93.90
35700;DHT22;21818;51.078;12.108;2024-01-11T04:23:10;9.60;93.70
35700;DHT22;21818;51.078;12.108;2024-01-11T04:25:36;9.60;93.60
35700;DHT22;21818;51.078;12.108;2024-01-11T04:28:01;9.60;93.60
35700;DHT22;21818;51.078;12.108;2024-01-11T04:30:27;9.60;93.50
35700;DHT22;21818;51.078;12.108;2024-01-11T04:32:52;9.60;93.40
35700;DHT22;21818;51.078;12.108;2024-01-11T04:35:18;9.60;93.40
35700;DHT22;21818;51.078;12.108;2024-01-11T04:37:43;9.60;93.60
35700;DHT22;21818;51.078;12.108;2024-01-11T04:40:09;9.50;93.80
35700;DHT22;21818;51.078;12.108;2024-01-11T04:42:35;9.50;94.00
35700;DHT22;21818;51.078;12.108;2024-01-11T04:45:00;9.40;94.10
35700;DHT22;21818;51.078;12.108;2024-01-11T04:47:26;9.40;94.20
35700;DHT22;21818;51.078;12.108;2024-01-11T04:49:51;9.40;94.30
35700;DHT22;21818;51.078;12.108;2024-01-11T04:52:17;9.50;94.30
35700;DHT22;21818;51.078;12.108;2024-01-11T04:54:42;9.50;94.30
35700;DHT22;21818;51.078;12.108;2024-01-11T04:57:08;9.50;94.30
35700;DHT22;21818;51.078;12.108;2024-01-11T04:59:34;9.50;94.40
35700;DHT22;21818;51.078;12.108;2024-01-11T05:01:59;9.50;94.50
35700;DHT22;21818;51.078;12.108;2024-01-11T05:04:25;9.50;94.60
35700;DHT22;21818;51.078;12.108;2024-01-11T05:06:51;9.50;94.60
35700;DHT22;21818;51.078;12.108;2024-01-11T05:09:17;9.50;94.70
35700;DHT22;21818;51.078;12.108;2024-01-11T05:11:42;9.50;94.80
35700;DHT22;21818;51.078;12.108;2024-01-11T05:14:08;9.50;94.80
35700;DHT22;21818;51.078;12.108;2024-01-11T05:16:33;9.50;94.80
35700;DHT22;21818;51.078;12.108;2024-01-11T05:19:01;9.50;94.80
35700;DHT22;21818;51.078;12.108;2024-01-11T05:21:26;9.50;94.80
35700;DHT22;21818;51.078;12.108;2024-01-11T05:23:52;9.50;94.80
35700;DHT22;21818;51.078;12.108;2024-01-11T05:26:18;9.50;94.90
35700;DHT22;21818;51.078;12.108;2024-01-11T05:28:44;9.50;95.00
35700;DHT22;21818;51.078;12.108;2024-01-11T05:31:11;9.40;94.80
35700;DHT22;21818;51.078;12.108;2024-01-11T05:33:38;9.40;94.90
35700;DHT22;21818;51.078;12.108;2024-01-11T05:36:04;9.60;94.80
35700;DHT22;21818;51.078;12.108;2024-01-11T05:38:30;9.70;94.60
35700;DHT22;21818;51.078;12.108;2024-01-11T05:40:56;9.70;94.50
35700;DHT22;21818;51.078;12.108;2024-01-11T05:43:22;9.80;94.30
35700;DHT22;21818;51.078;12.108;2024-01-11T05:45:49;9.80;94.20
35700;DHT22;21818;51.078;12.108;2024-01-11T05:48:16;9.90;94.00
35700;DHT22;21818;51.078;12.108;2024-01-11T05:50:42;9.90;93.90
35700;DHT22;21818;51.078;12.108;2024-01-11T05:53:08;9.90;93.80
35700;DHT22;21818;51.078;12.108;2024-01-11T05:55:33;10.00;93.70
35700;DHT22;21818;51.078;12.108;2024-01-11T05:57:59;10.00;93.70
35700;DHT22;21818;51.078;12.108;2024-01-11T06:00:25;10.00;93.60
35700;DHT22;21818;51.078;12.108;2024-01-11T06:02:51;10.00;93.60
35700;DHT22;21818;51.078;12.108;2024-01-11T06:05:16;10.00;93.60
35700;DHT22;21818;51.078;12.108;2024-01-11T06:07:42;10.00;93.70
35700;DHT22;21818;51.078;12.108;2024-01-11T06:10:08;10.00;93.80
35700;DHT22;21818;51.078;12.108;2024-01-11T06:12:34;10.00;93.90
35700;DHT22;21818;51.078;12.108;2024-01-11T06:15:01;10.00;93.90
35700;DHT22;21818;51.078;12.108;2024-01-11T06:17:27;10.00;94.00
35700;DHT22;21818;51.078;12.108;2024-01-11T06:19:52;10.00;94.00
35700;DHT22;21818;51.078;12.108;2024-01-11T06:22:18;10.00;94.00
35700;DHT22;21818;51.078;12.108;2024-01-11T06:24:44;9.90;94.00
35700;DHT22;21818;51.078;12.108;2024-01-11T06:27:09;9.90;94.00
35700;DHT22;21818;51.078;12.108;2024-01-11T06:29:35;9.80;94.00
35700;DHT22;21818;51.078;12.108;2024-01-11T06:32:01;9.80;94.00
35700;DHT22;21818;51.078;12.108;2024-01-11T06:34:26;9.80;94.00
35700;DHT22;21818;51.078;12.108;2024-01-11T06:36:53;9.80;94.00
35700;DHT22;21818;51.078;12.108;2024-01-11T06:39:18;9.80;94.10
35700;DHT22;21818;51.078;12.108;2024-01-11T06:41:44;9.70;94.10
35700;DHT22;21818;51.078;12.108;2024-01-11T06:44:09;9.80;94.00
35700;DHT22;21818;51.078;12.108;2024-01-11T06:46:35;9.80;93.90
35700;DHT22;21818;51.078;12.108;2024-01-11T06:49:01;9.80;93.80
35700;DHT22;21818;51.078;12.108;2024-01-11T06:51:27;9.80;93.70
35700;DHT22;21818;51.078;12.108;2024-01-11T06:53:53;9.80;93.70
35700;DHT22;21818;51.078;12.108;2024-01-11T06:56:19;9.80;93.70
35700;DHT22;21818;51.078;12.108;2024-01-11T06:58:47;9.80;93.70
35700;DHT22;21818;51.078;12.108;2024-01-11T07:01:13;9.70;93.70
35700;DHT22;21818;51.078;12.108;2024-01-11T07:03:39;9.70;93.70
35700;DHT22;21818;51.078;12.108;2024-01-11T07:06:05;9.70;93.70
35700;DHT22;21818;51.078;12.108;2024-01-11T07:08:31;9.70;93.70
35700;DHT22;21818;51.078;12.108;2024-01-11T07:10:58;9.60;93.60
35700;DHT22;21818;51.078;12.108;2024-01-11T07:13:23;9.60;93.60
35700;DHT22;21818;51.078;12.108;2024-01-11T07:15:49;9.60;93.60
35700;DHT22;21818;51.078;12.108;2024-01-11T07:18:17;9.60;93.60
35700;DHT22;21818;51.078;12.108;2024-01-11T07:20:43;9.50;93.50
35700;DHT22;21818;51.078;12.108;2024-01-11T07:23:09;9.60;93.60
35700;DHT22;21818;51.078;12.108;2024-01-11T07:25:34;9.60;93.50
35700;DHT22;21818;51.078;12.108;2024-01-11T07:28:00;9.60;93.40
35700;DHT22;21818;51.078;12.108;2024-01-11T07:30:26;9.50;93.40
35700;DHT22;21818;51.078;12.108;2024-01-11T07:32:52;9.20;93.40
35700;DHT22;21818;51.078;12.108;2024-01-11T07:35:17;9.00;93.80
35700;DHT22;21818;51.078;12.108;2024-01-11T07:37:43;8.90;93.90
35700;DHT22;21818;51.078;12.108;2024-01-11T07:40:09;9.00;93.70
35700;DHT22;21818;51.078;12.108;2024-01-11T07:42:40;9.00;93.70
35700;DHT22;21818;51.078;12.108;2024-01-11T07:45:06;9.10;93.50
35700;DHT22;21818;51.078;12.108;2024-01-11T07:47:33;9.20;93.30
35700;DHT22;21818;51.078;12.108;2024-01-11T07:49:58;9.20;93.20
35700;DHT22;21818;51.078;12.108;2024-01-11T07:52:24;9.30;93.00
35700;DHT22;21818;51.078;12.108;2024-01-11T07:54:50;9.30;93.00
35700;DHT22;21818;51.078;12.108;2024-01-11T07:57:15;9.30;92.90
35700;DHT22;21818;51.078;12.108;2024-01-11T07:59:41;9.30;92.90
35700;DHT22;21818;51.078;12.108;2024-01-11T08:02:06;9.40;92.80
35700;DHT22;21818;51.078;12.108;2024-01-11T08:04:32;9.30;92.70
35700;DHT22;21818;51.078;12.108;2024-01-11T08:06:58;9.30;92.80
35700;DHT22;21818;51.078;12.108;2024-01-11T08:09:28;9.40;92.80
35700;DHT22;21818;51.078;12.108;2024-01-11T08:11:53;9.40;92.70
35700;DHT22;21818;51.078;12.108;2024-01-11T08:14:20;9.50;92.60
35700;DHT22;21818;51.078;12.108;2024-01-11T08:16:45;9.50;92.60
35700;DHT22;21818;51.078;12.108;2024-01-11T08:19:11;9.40;92.50
35700;DHT22;21818;51.078;12.108;2024-01-11T08:21:39;9.40;92.40
35700;DHT22;21818;51.078;12.108;2024-01-11T08:24:05;9.40;92.60
35700;DHT22;21818;51.078;12.108;2024-01-11T08:26:30;9.40;92.30
35700;DHT22;21818;51.078;12.108;2024-01-11T08:28:56;9.40;92.30
35700;DHT22;21818;51.078;12.108;2024-01-11T08:31:22;9.30;92.20
35700;DHT22;21818;51.078;12.108;2024-01-11T08:33:48;9.40;92.30
35700;DHT22;21818;51.078;12.108;2024-01-11T08:36:13;9.40;92.10
35700;DHT22;21818;51.078;12.108;2024-01-11T08:38:39;9.40;92.10
35700;DHT22;21818;51.078;12.108;2024-01-11T08:41:06;9.40;92.00
35700;DHT22;21818;51.078;12.108;2024-01-11T08:43:32;9.40;91.90
35700;DHT22;21818;51.078;12.108;2024-01-11T08:45:58;9.50;92.00
35700;DHT22;21818;51.078;12.108;2024-01-11T08:48:23;9.50;92.00
35700;DHT22;21818;51.078;12.108;2024-01-11T08:50:49;9.50;92.00
35700;DHT22;21818;51.078;12.108;2024-01-11T08:53:15;9.40;92.10
35700;DHT22;21818;51.078;12.108;2024-01-11T08:55:41;9.40;92.20
35700;DHT22;21818;51.078;12.108;2024-01-11T08:58:08;9.40;92.10
35700;DHT22;21818;51.078;12.108;2024-01-11T09:00:33;9.30;92.10
35700;DHT22;21818;51.078;12.108;2024-01-11T09:02:59;9.30;92.20
35700;DHT22;21818;51.078;12.108;2024-01-11T09:05:25;9.20;92.40
35700;DHT22;21818;51.078;12.108;2024-01-11T09:07:50;9.10;92.60
35700;DHT22;21818;51.078;12.108;2024-01-11T09:10:16;9.00;92.60
35700;DHT22;21818;51.078;12.108;2024-01-11T09:12:41;9.00;92.70
35700;DHT22;21818;51.078;12.108;2024-01-11T09:15:07;9.20;92.40
35700;DHT22;21818;51.078;12.108;2024-01-11T09:17:33;9.20;92.30
35700;DHT22;21818;51.078;12.108;2024-01-11T09:19:59;9.30;92.20
35700;DHT22;21818;51.078;12.108;2024-01-11T09:22:24;9.30;92.00
35700;DHT22;21818;51.078;12.108;2024-01-11T09:24:50;9.30;92.00
35700;DHT22;21818;51.078;12.108;2024-01-11T09:27:16;9.30;92.00
35700;DHT22;21818;51.078;12.108;2024-01-11T09:29:45;9.30;92.00
35700;DHT22;21818;51.078;12.108;2024-01-11T09:32:11;9.40;91.90
35700;DHT22;21818;51.078;12.108;2024-01-11T09:34:37;9.40;91.70
35700;DHT22;21818;51.078;12.108;2024-01-11T09:37:03;9.40;91.70
35700;DHT22;21818;51.078;12.108;2024-01-11T09:39:29;9.40;91.60
35700;DHT22;21818;51.078;12.108;2024-01-11T09:42:08;9.50;91.50
35700;DHT22;21818;51.078;12.108;2024-01-11T09:44:36;9.50;91.50
35700;DHT22;21818;51.078;12.108;2024-01-11T09:47:04;9.50;91.40
35700;DHT22;21818;51.078;12.108;2024-01-11T09:49:32;9.50;91.40
35700;DHT22;21818;51.078;12.108;2024-01-11T09:51:58;9.40;91.50
35700;DHT22;21818;51.078;12.108;2024-01-11T09:54:26;9.50;91.40
35700;DHT22;21818;51.078;12.108;2024-01-11T09:56:54;9.40;91.50
35700;DHT22;21818;51.078;12.108;2024-01-11T09:59:20;9.50;91.50
35700;DHT22;21818;51.078;12.108;2024-01-11T10:01:49;9.50;91.60
35700;DHT22;21818;51.078;12.108;2024-01-11T10:04:16;9.40;91.70
35700;DHT22;21818;51.078;12.108;2024-01-11T10:06:42;9.40;91.70
35700;DHT22;21818;51.078;12.108;2024-01-11T10:09:08;9.40;91.80
35700;DHT22;21818;51.078;12.108;2024-01-11T10:11:34;9.40;91.80
35700;DHT22;21818;51.078;12.108;2024-01-11T10:14:03;9.40;91.80
35700;DHT22;21818;51.078;12.108;2024-01-11T10:16:30;9.40;91.80
35700;DHT22;21818;51.078;12.108;2024-01-11T10:18:56;9.40;91.80
35700;DHT22;21818;51.078;12.108;2024-01-11T10:21:23;9.40;91.70
35700;DHT22;21818;51.078;12.108;2024-01-11T10:23:49;9.50;91.60
35700;DHT22;21818;51.078;12.108;2024-01-11T10:26:16;9.50;91.50
35700;DHT22;21818;51.078;12.108;2024-01-11T10:28:45;9.50;91.40
35700;DHT22;21818;51.078;12.108;2024-01-11T10:31:11;9.50;91.30
35700;DHT22;21818;51.078;12.108;2024-01-11T10:33:37;9.60;91.20
35700;DHT22;21818;51.078;12.108;2024-01-11T10:36:03;9.60;91.20
35700;DHT22;21818;51.078;12.108;2024-01-11T10:38:35;9.60;91.10
35700;DHT22;21818;51.078;12.108;2024-01-11T10:41:04;9.60;91.10
35700;DHT22;21818;51.078;12.108;2024-01-11T10:43:31;9.60;91.00
35700;DHT22;21818;51.078;12.108;2024-01-11T10:45:59;9.60;91.00
35700;DHT22;21818;51.078;12.108;2024-01-11T10:48:30;9.70;91.00
35700;DHT22;21818;51.078;12.108;2024-01-11T10:51:00;9.70;90.90
35700;DHT22;21818;51.078;12.108;2024-01-11T10:53:41;9.70;90.90
35700;DHT22;21818;51.078;12.108;2024-01-11T10:56:06;9.70;90.70
35700;DHT22;21818;51.078;12.108;2024-01-11T10:58:35;9.80;90.70
35700;DHT22;21818;51.078;12.108;2024-01-11T11:01:03;9.90;90.60
35700;DHT22;21818;51.078;12.108;2024-01-11T11:03:30;9.90;90.60
35700;DHT22;21818;51.078;12.108;2024-01-11T11:05:58;9.90;90.60
35700;DHT22;21818;51.078;12.108;2024-01-11T11:08:24;9.80;90.50
35700;DHT22;21818;51.078;12.108;2024-01-11T11:11:03;9.70;90.60
35700;DHT22;21818;51.078;12.108;2024-01-11T11:13:31;9.60;90.60
35700;DHT22;21818;51.078;12.108;2024-01-11T11:15:57;9.60;90.60
35700;DHT22;21818;51.078;12.108;2024-01-11T11:18:23;9.60;90.80
35700;DHT22;21818;51.078;12.108;2024-01-11T11:20:50;9.60;90.90
35700;DHT22;21818;51.078;12.108;2024-01-11T11:23:17;9.60;90.70
35700;DHT22;21818;51.078;12.108;2024-01-11T11:25:45;9.50;90.90
35700;DHT22;21818;51.078;12.108;2024-01-11T11:28:12;9.50;90.90
35700;DHT22;21818;51.078;12.108;2024-01-11T11:30:40;9.50;90.90
35700;DHT22;21818;51.078;12.108;2024-01-11T11:35:46;9.50;90.80
35700;DHT22;21818;51.078;12.108;2024-01-11T11:38:20;9.60;90.60
35700;DHT22;21818;51.078;12.108;2024-01-11T11:40:47;9.70;90.50
35700;DHT22;21818;51.078;12.108;2024-01-11T11:43:15;9.60;90.40
35700;DHT22;21818;51.078;12.108;2024-01-11T11:45:41;9.60;90.50
35700;DHT22;21818;51.078;12.108;2024-01-11T11:51:12;9.60;90.40
35700;DHT22;21818;51.078;12.108;2024-01-11T11:53:39;9.60;90.50
35700;DHT22;21818;51.078;12.108;2024-01-11T11:56:05;9.50;90.50
35700;DHT22;21818;51.078;12.108;2024-01-11T11:58:33;9.50;90.50
35700;DHT22;21818;51.078;12.108;2024-01-11T12:01:00;9.50;90.60
35700;DHT22;21818;51.078;12.108;2024-01-11T12:03:29;9.60;90.50
35700;DHT22;21818;51.078;12.108;2024-01-11T12:05:59;9.60;90.50
35700;DHT22;21818;51.078;12.108;2024-01-11T12:08:25;9.70;90.50
35700;DHT22;21818;51.078;12.108;2024-01-11T12:10:54;9.70;90.40
35700;DHT22;21818;51.078;12.108;2024-01-11T12:13:19;9.70;90.40
35700;DHT22;21818;51.078;12.108;2024-01-11T12:15:46;9.80;90.40
35700;DHT22;21818;51.078;12.108;2024-01-11T12:18:12;9.80;90.40
35700;DHT22;21818;51.078;12.108;2024-01-11T12:20:37;9.90;90.30
35700;DHT22;21818;51.078;12.108;2024-01-11T12:23:03;10.00;90.30
35700;DHT22;21818;51.078;12.108;2024-01-11T12:25:30;10.00;90.20
35700;DHT22;21818;51.078;12.108;2024-01-11T12:27:56;10.10;90.20
35700;DHT22;21818;51.078;12.108;2024-01-11T12:30:26;10.20;90.00
35700;DHT22;21818;51.078;12.108;2024-01-11T12:32:53;10.30;89.70
35700;DHT22;21818;51.078;12.108;2024-01-11T12:35:19;10.40;89.50
35700;DHT22;21818;51.078;12.108;2024-01-11T12:37:55;10.50;89.30
35700;DHT22;21818;51.078;12.108;2024-01-11T12:40:21;10.60;89.00
35700;DHT22;21818;51.078;12.108;2024-01-11T12:42:47;10.60;89.00
35700;DHT22;21818;51.078;12.108;2024-01-11T12:45:16;10.60;89.10
35700;DHT22;21818;51.078;12.108;2024-01-11T12:47:41;10.60;88.80
35700;DHT22;21818;51.078;12.108;2024-01-11T12:50:07;10.50;88.70
35700;DHT22;21818;51.078;12.108;2024-01-11T12:52:33;10.50;88.60
35700;DHT22;21818;51.078;12.108;2024-01-11T12:54:58;10.50;88.50
35700;DHT22;21818;51.078;12.108;2024-01-11T12:57:25;10.50;88.30
35700;DHT22;21818;51.078;12.108;2024-01-11T12:59:51;10.40;88.50
35700;DHT22;21818;51.078;12.108;2024-01-11T13:02:18;10.30;88.70
35700;DHT22;21818;51.078;12.108;2024-01-11T13:04:43;10.20;88.70
35700;DHT22;21818;51.078;12.108;2024-01-11T13:07:12;10.20;89.40
35700;DHT22;21818;51.078;12.108;2024-01-11T13:09:39;10.20;89.10
35700;DHT22;21818;51.078;12.108;2024-01-11T13:12:05;10.10;89.30
35700;DHT22;21818;51.078;12.108;2024-01-11T13:14:30;10.10;89.30
35700;DHT22;21818;51.078;12.108;2024-01-11T13:16:57;10.10;89.50
35700;DHT22;21818;51.078;12.108;2024-01-11T13:19:23;10.20;89.20
35700;DHT22;21818;51.078;12.108;2024-01-11T13:21:49;10.20;89.10
35700;DHT22;21818;51.078;12.108;2024-01-11T13:24:14;10.20;89.10
35700;DHT22;21818;51.078;12.108;2024-01-11T13:26:40;10.20;89.20
35700;DHT22;21818;51.078;12.108;2024-01-11T13:29:06;10.20;89.20
35700;DHT22;21818;51.078;12.108;2024-01-11T13:31:32;10.10;89.10
35700;DHT22;21818;51.078;12.108;2024-01-11T13:33:58;10.10;88.90
35700;DHT22;21818;51.078;12.108;2024-01-11T13:36:24;10.10;88.90
35700;DHT22;21818;51.078;12.108;2024-01-11T13:38:50;10.10;88.80
35700;DHT22;21818;51.078;12.108;2024-01-11T13:41:16;10.20;88.70
35700;DHT22;21818;51.078;12.108;2024-01-11T13:43:43;10.40;88.30
35700;DHT22;21818;51.078;12.108;2024-01-11T13:46:09;10.40;88.10
35700;DHT22;21818;51.078;12.108;2024-01-11T13:48:35;10.50;87.80
35700;DHT22;21818;51.078;12.108;2024-01-11T13:51:01;10.60;87.30
35700;DHT22;21818;51.078;12.108;2024-01-11T13:53:29;10.60;87.20
35700;DHT22;21818;51.078;12.108;2024-01-11T13:55:54;10.60;87.20
35700;DHT22;21818;51.078;12.108;2024-01-11T13:58:21;10.70;86.90
35700;DHT22;21818;51.078;12.108;2024-01-11T14:00:46;10.80;86.80
35700;DHT22;21818;51.078;12.108;2024-01-11T14:03:12;10.90;86.60
35700;DHT22;21818;51.078;12.108;2024-01-11T14:05:38;10.90;86.60
35700;DHT22;21818;51.078;12.108;2024-01-11T14:08:04;10.90;86.40
35700;DHT22;21818;51.078;12.108;2024-01-11T14:10:33;11.00;86.30
35700;DHT22;21818;51.078;12.108;2024-01-11T14:13:00;11.10;86.40
35700;DHT22;21818;51.078;12.108;2024-01-11T14:15:26;11.10;86.10
35700;DHT22;21818;51.078;12.108;2024-01-11T14:17:52;11.20;85.80
35700;DHT22;21818;51.078;12.108;2024-01-11T14:20:18;11.30;85.90
35700;DHT22;21818;51.078;12.108;2024-01-11T14:22:44;11.30;85.90
35700;DHT22;21818;51.078;12.108;2024-01-11T14:25:18;11.30;85.60
35700;DHT22;21818;51.078;12.108;2024-01-11T14:27:44;11.40;85.50
35700;DHT22;21818;51.078;12.108;2024-01-11T14:30:11;11.30;85.30
35700;DHT22;21818;51.078;12.108;2024-01-11T14:32:37;11.40;85.30
35700;DHT22;21818;51.078;12.108;2024-01-11T14:35:03;11.30;85.30
35700;DHT22;21818;51.078;12.108;2024-01-11T14:37:30;11.20;85.50
35700;DHT22;21818;51.078;12.108;2024-01-11T14:39:56;11.10;85.50
35700;DHT22;21818;51.078;12.108;2024-01-11T14:42:21;11.10;85.60
35700;DHT22;21818;51.078;12.108;2024-01-11T14:44:47;11.10;85.60
35700;DHT22;21818;51.078;12.108;2024-01-11T14:47:13;11.10;85.40
35700;DHT22;21818;51.078;12.108;2024-01-11T14:49:38;11.10;85.20
35700;DHT22;21818;51.078;12.108;2024-01-11T14:52:05;11.10;85.00
35700;DHT22;21818;51.078;12.108;2024-01-11T14:54:31;11.10;85.10
35700;DHT22;21818;51.078;12.108;2024-01-11T14:56:57;11.10;85.10
35700;DHT22;21818;51.078;12.108;2024-01-11T14:59:22;11.00;85.00
35700;DHT22;21818;51.078;12.108;2024-01-11T15:01:48;11.00;85.10
35700;DHT22;21818;51.078;12.108;2024-01-11T15:04:13;10.90;85.20
35700;DHT22;21818;51.078;12.108;2024-01-11T15:06:39;10.80;85.40
35700;DHT22;21818;51.078;12.108;2024-01-11T15:09:04;10.80;85.50
35700;DHT22;21818;51.078;12.108;2024-01-11T15:11:30;10.70;85.60
35700;DHT22;21818;51.078;12.108;2024-01-11T15:14:01;10.70;85.90
35700;DHT22;21818;51.078;12.108;2024-01-11T15:16:28;10.60;86.00
35700;DHT22;21818;51.078;12.108;2024-01-11T15:18:54;10.60;86.00
35700;DHT22;21818;51.078;12.108;2024-01-11T15:21:19;10.60;86.00
35700;DHT22;21818;51.078;12.108;2024-01-11T15:23:45;10.70;85.90
35700;DHT22;21818;51.078;12.108;2024-01-11T15:26:10;10.70;85.70